Beland, Oklahoma
Current Conditions -  °F | °C
As of 1:53 AM on Thursday 27 Nov 2014 (Local Time) from KMKO Reporting Station
Clear Clear  
Wind Chill: 23°   Ceiling: Unl
Heat Index: 33°   Visibility: 10mi
Dew Point: 24°   Wind: 15mph
Humidity: 70%   Direction: 10°N
Pressure: 30.46"   Gusts: 23mph
Location:  35.6818°N, 95.3578°W
Report Text: KMKO 270753Z AUTO 01013G20KT 10SM CLR 01/M04 A3046 RMK AO2 SLP316 T00061044
Loading
Personal Weather Stations






























Interactive Weather Map New forecast layout! Learn more

10-Day Weather Forecast

Advertisements
Track Severe Weather on mobile